createdAt,value
2017-11-12T00:00:59.987Z,8.02
2017-11-12T00:03:27.445Z,8.75
2017-11-12T00:05:54.894Z,7.00
2017-11-12T00:08:22.353Z,8.20
2017-11-12T00:10:49.817Z,10.07
2017-11-12T00:13:17.283Z,9.93
2017-11-12T00:15:44.734Z,10.85
2017-11-12T00:18:12.198Z,13.48
2017-11-12T00:20:39.661Z,11.85
2017-11-12T00:23:07.129Z,11.82
2017-11-12T00:25:35.351Z,13.30
2017-11-12T00:28:02.820Z,10.77
2017-11-12T00:30:30.274Z,11.25
2017-11-12T00:32:57.739Z,10.02
2017-11-12T00:35:25.178Z,9.10
2017-11-12T00:37:52.643Z,10.40
2017-11-12T00:40:20.112Z,10.77
2017-11-12T00:42:47.558Z,12.95
2017-11-12T00:45:15.037Z,15.10
2017-11-12T00:47:42.490Z,14.65
2017-11-12T00:50:09.943Z,15.75
2017-11-12T00:52:37.394Z,13.25
2017-11-12T00:55:04.854Z,14.30
2017-11-12T00:57:32.315Z,12.85
2017-11-12T00:59:59.875Z,12.55
2017-11-12T01:02:27.332Z,13.57
2017-11-12T01:04:54.887Z,13.27
2017-11-12T01:07:22.451Z,13.77
2017-11-12T01:09:49.911Z,13.62
2017-11-12T01:12:17.466Z,11.23
2017-11-12T01:14:44.921Z,11.60
2017-11-12T01:17:13.145Z,9.68
2017-11-12T01:19:40.651Z,11.45
2017-11-12T01:22:08.106Z,9.50
2017-11-12T01:24:35.559Z,7.95
2017-11-12T01:27:03.011Z,6.50
2017-11-12T01:29:31.307Z,6.68
2017-11-12T01:31:58.765Z,7.15
2017-11-12T01:34:26.217Z,7.10
2017-11-12T01:36:53.674Z,8.00
2017-11-12T01:39:21.119Z,9.20
2017-11-12T01:41:48.588Z,10.95
2017-11-12T01:44:16.047Z,12.07
2017-11-12T01:46:43.745Z,12.27
2017-11-12T01:49:11.194Z,10.80
2017-11-12T01:51:38.659Z,10.35
2017-11-12T01:54:06.105Z,8.32
2017-11-12T01:56:34.346Z,7.60
2017-11-12T01:59:01.807Z,6.37
2017-11-12T02:01:29.271Z,7.72
2017-11-12T02:03:56.718Z,6.80
2017-11-12T02:06:24.183Z,7.47
2017-11-12T02:08:51.637Z,7.95
2017-11-12T02:11:19.131Z,8.95
2017-11-12T02:13:46.645Z,7.07
2017-11-12T02:16:16.786Z,10.60
2017-11-12T02:18:45.010Z,8.55
2017-11-12T02:21:12.471Z,7.95
2017-11-12T02:23:39.934Z,9.40
2017-11-12T02:26:07.412Z,9.38
2017-11-12T02:28:34.871Z,8.77
2017-11-12T02:31:02.324Z,10.93
2017-11-12T02:33:31.318Z,9.00
2017-11-12T02:35:58.870Z,11.05
2017-11-12T02:38:26.431Z,10.52
2017-11-12T02:40:53.987Z,9.95
2017-11-12T02:43:21.446Z,9.32
2017-11-12T02:45:48.906Z,12.90
2017-11-12T02:48:16.362Z,12.90
2017-11-12T02:50:43.815Z,12.37
2017-11-12T02:53:11.278Z,13.98
2017-11-12T02:55:38.828Z,13.43
2017-11-12T02:58:06.390Z,12.45
2017-11-12T03:00:33.858Z,12.70
2017-11-12T03:03:01.407Z,13.50
2017-11-12T03:05:28.878Z,13.40
2017-11-12T03:07:56.334Z,12.85
2017-11-12T03:10:23.802Z,12.07
2017-11-12T03:12:52.023Z,13.27
2017-11-12T03:15:19.487Z,12.25
2017-11-12T03:17:46.939Z,14.80
2017-11-12T03:20:14.402Z,14.70
2017-11-12T03:22:41.854Z,12.37
2017-11-12T03:25:09.310Z,13.20
2017-11-12T03:27:36.797Z,10.52
2017-11-12T03:30:04.368Z,11.68
2017-11-12T03:32:31.927Z,12.20
2017-11-12T03:34:59.393Z,11.93
2017-11-12T03:37:27.612Z,15.27
2017-11-12T03:39:55.077Z,11.63
2017-11-12T03:42:22.534Z,15.43
2017-11-12T03:44:49.995Z,14.48
2017-11-12T03:47:17.447Z,13.13
2017-11-12T03:49:44.906Z,13.00
2017-11-12T03:52:12.375Z,12.82
2017-11-12T03:54:39.938Z,13.93
2017-11-12T03:57:07.382Z,15.00
2017-11-12T03:59:35.939Z,13.07
2017-11-12T04:02:04.130Z,13.18
2017-11-12T04:04:31.709Z,13.45
2017-11-12T04:06:59.152Z,13.52
2017-11-12T04:09:26.614Z,13.25
2017-11-12T04:11:54.078Z,11.15
2017-11-12T04:14:21.635Z,13.60
2017-11-12T04:16:49.082Z,13.65
2017-11-12T04:19:16.543Z,13.13
2017-11-12T04:21:43.998Z,11.85
2017-11-12T04:24:11.489Z,11.73
2017-11-12T04:26:39.712Z,12.15
2017-11-12T04:29:07.986Z,12.77
2017-11-12T04:31:35.474Z,13.15
2017-11-12T04:34:02.930Z,12.60
2017-11-12T04:36:30.400Z,13.62
2017-11-12T04:38:57.847Z,13.93
2017-11-12T04:41:25.305Z,13.73
2017-11-12T04:43:52.764Z,13.10
2017-11-12T04:46:21.543Z,14.40
2017-11-12T04:48:48.995Z,16.10
2017-11-12T04:51:16.459Z,14.07
2017-11-12T04:53:44.022Z,13.10
2017-11-12T04:56:11.485Z,15.15
2017-11-12T04:58:38.934Z,13.80
2017-11-12T05:01:06.398Z,15.38
2017-11-12T05:03:33.856Z,16.10
2017-11-12T05:06:01.318Z,13.43
2017-11-12T05:08:29.570Z,13.95
2017-11-12T05:10:57.130Z,15.70
2017-11-12T05:13:24.599Z,14.87
2017-11-12T05:15:52.047Z,15.07
2017-11-12T05:18:19.506Z,12.30
2017-11-12T05:20:48.472Z,12.73
2017-11-12T05:23:15.934Z,12.25
2017-11-12T05:25:43.390Z,13.88
2017-11-12T05:28:10.860Z,12.27
2017-11-12T05:30:38.343Z,15.15
2017-11-12T05:33:05.799Z,12.73
2017-11-12T05:35:34.037Z,13.40
2017-11-12T05:38:01.498Z,12.73
2017-11-12T05:40:28.971Z,13.95
2017-11-12T05:42:56.438Z,14.20
2017-11-12T05:45:23.895Z,16.45
2017-11-12T05:47:51.354Z,15.38
2017-11-12T05:50:18.894Z,15.25
2017-11-12T05:52:46.359Z,14.85
2017-11-12T05:55:13.815Z,13.85
2017-11-12T05:57:41.281Z,15.75
2017-11-12T06:00:08.727Z,15.20
2017-11-12T06:02:36.190Z,17.23
2017-11-12T06:05:04.406Z,15.60
2017-11-12T06:07:31.898Z,15.38
2017-11-12T06:09:59.353Z,15.45
2017-11-12T06:12:26.815Z,17.08
2017-11-12T06:14:54.270Z,13.70
2017-11-12T06:17:21.732Z,15.68
2017-11-12T06:19:49.187Z,13.98
2017-11-12T06:22:16.644Z,14.63
2017-11-12T06:24:44.107Z,15.35
2017-11-12T06:27:11.559Z,14.35
2017-11-12T06:29:39.019Z,15.55
2017-11-12T06:32:06.469Z,15.10
2017-11-12T06:34:33.928Z,12.48
2017-11-12T06:37:01.391Z,10.93
2017-11-12T06:39:28.947Z,11.12
2017-11-12T06:41:56.399Z,11.88
2017-11-12T06:44:23.863Z,8.85
2017-11-12T06:46:51.327Z,11.68
2017-11-12T06:49:18.795Z,11.60
2017-11-12T06:51:46.250Z,10.88
2017-11-12T06:54:15.435Z,9.65
2017-11-12T06:56:42.894Z,10.63
2017-11-12T06:59:10.351Z,12.02
2017-11-12T07:01:37.821Z,10.43
2017-11-12T07:04:05.268Z,12.20
2017-11-12T07:06:34.177Z,11.90
2017-11-12T07:09:03.994Z,10.52
2017-11-12T07:11:32.232Z,10.02
2017-11-12T07:14:00.080Z,9.70
2017-11-12T07:16:28.090Z,10.23
2017-11-12T07:18:55.631Z,9.05
2017-11-12T07:21:24.198Z,9.02
2017-11-12T07:23:51.658Z,9.07
2017-11-12T07:26:19.228Z,8.50
2017-11-12T07:28:46.856Z,7.32
2017-11-12T07:31:14.306Z,6.93
2017-11-12T07:33:41.841Z,10.00
2017-11-12T07:36:10.058Z,8.80
2017-11-12T07:38:37.519Z,7.95
2017-11-12T07:41:05.171Z,9.23
2017-11-12T07:43:33.374Z,7.78
2017-11-12T07:46:01.781Z,7.00
2017-11-12T07:48:30.839Z,7.68
2017-11-12T07:50:58.294Z,8.57
2017-11-12T07:53:25.752Z,7.75
2017-11-12T07:55:53.214Z,7.65
2017-11-12T07:58:20.667Z,7.72
2017-11-12T08:00:48.122Z,6.15
2017-11-12T08:03:15.582Z,8.65
2017-11-12T08:05:43.769Z,9.45
2017-11-12T08:08:11.212Z,8.90
2017-11-12T08:10:39.924Z,9.20
2017-11-12T08:13:07.463Z,9.35
2017-11-12T08:15:35.102Z,9.73
2017-11-12T08:18:02.911Z,10.68
2017-11-12T08:20:31.846Z,10.35
2017-11-12T08:22:59.318Z,11.02
2017-11-12T08:25:27.223Z,9.80
2017-11-12T08:27:55.557Z,9.88
2017-11-12T08:30:23.042Z,10.32
2017-11-12T08:32:50.499Z,11.12
2017-11-12T08:35:18.035Z,11.12
2017-11-12T08:37:45.503Z,9.85
2017-11-12T08:40:12.950Z,12.15
2017-11-12T08:42:40.415Z,12.60
2017-11-12T08:45:09.603Z,12.55
2017-11-12T08:47:37.063Z,10.63
2017-11-12T08:50:04.527Z,12.77
2017-11-12T08:52:32.908Z,11.30
2017-11-12T08:55:00.851Z,10.63
2017-11-12T08:57:28.322Z,10.40
2017-11-12T08:59:55.778Z,10.63
2017-11-12T09:02:24.759Z,10.20
2017-11-12T09:04:52.222Z,9.40
2017-11-12T09:07:19.777Z,9.10
2017-11-12T09:09:47.246Z,10.07
2017-11-12T09:12:14.690Z,9.55
2017-11-12T09:14:42.163Z,9.18
2017-11-12T09:17:09.618Z,11.65
2017-11-12T09:19:37.161Z,9.15
2017-11-12T09:22:05.899Z,10.20
2017-11-12T09:24:33.358Z,9.25
2017-11-12T09:27:00.859Z,9.50
2017-11-12T09:29:44.946Z,9.57
2017-11-12T09:32:17.387Z,9.48
2017-11-12T09:34:46.871Z,8.70
2017-11-12T09:37:16.755Z,8.95
2017-11-12T09:39:44.461Z,9.57
2017-11-12T09:42:11.902Z,8.90
2017-11-12T09:44:39.370Z,9.07
2017-11-12T09:47:07.962Z,7.80
2017-11-12T09:49:35.429Z,8.32
2017-11-12T09:52:02.880Z,9.40
2017-11-12T09:54:30.342Z,10.15
2017-11-12T09:56:57.811Z,10.02
2017-11-12T09:59:25.266Z,9.38
2017-11-12T10:01:52.721Z,9.07
2017-11-12T10:04:20.987Z,10.85
2017-11-12T10:06:48.915Z,10.68
2017-11-12T10:09:16.371Z,9.10
2017-11-12T10:11:43.826Z,10.32
2017-11-12T10:14:11.283Z,9.35
2017-11-12T10:16:38.770Z,7.50
2017-11-12T10:19:06.227Z,10.30
2017-11-12T10:21:34.810Z,11.12
2017-11-12T10:24:03.722Z,10.57
2017-11-12T10:26:31.219Z,9.35
2017-11-12T10:29:01.036Z,10.68
2017-11-12T10:31:28.550Z,10.65
2017-11-12T10:33:57.871Z,9.90
2017-11-12T10:36:26.101Z,9.00
2017-11-12T10:38:53.554Z,8.18
2017-11-12T10:41:21.016Z,7.45
2017-11-12T10:43:48.644Z,7.60
2017-11-12T10:46:16.093Z,7.30
2017-11-12T10:48:43.943Z,7.20
2017-11-12T10:51:14.418Z,6.45
2017-11-12T10:53:41.869Z,4.93
2017-11-12T10:56:09.342Z,4.47
2017-11-12T10:58:36.790Z,5.15
2017-11-12T11:01:04.246Z,4.37
2017-11-12T11:03:32.074Z,3.47
2017-11-12T11:05:59.527Z,3.67
2017-11-12T11:08:28.539Z,2.90
2017-11-12T11:10:58.020Z,2.85
2017-11-12T11:13:25.478Z,2.92
2017-11-12T11:15:52.987Z,2.35
2017-11-12T11:18:20.422Z,3.20
2017-11-12T11:20:47.888Z,3.00
2017-11-12T11:23:15.340Z,3.37
2017-11-12T11:25:42.794Z,2.55
2017-11-12T11:28:10.255Z,3.00
2017-11-12T11:30:37.711Z,3.75
2017-11-12T11:33:05.172Z,3.20
2017-11-12T11:35:32.618Z,3.85
2017-11-12T11:38:00.087Z,3.35
2017-11-12T11:40:27.528Z,3.50
2017-11-12T11:42:54.982Z,4.78
2017-11-12T11:45:22.431Z,6.37
2017-11-12T11:47:49.898Z,6.40
2017-11-12T11:50:17.375Z,5.10
2017-11-12T11:52:44.836Z,6.20
2017-11-12T11:55:13.085Z,3.40
2017-11-12T11:57:40.549Z,2.60
2017-11-12T12:00:08.013Z,2.42
2017-11-12T12:02:35.471Z,2.10
2017-11-12T12:05:03.213Z,3.22
2017-11-12T12:07:30.667Z,5.10
2017-11-12T12:09:58.132Z,5.43
2017-11-12T12:12:25.589Z,6.35
2017-11-12T12:14:53.040Z,6.85
2017-11-12T12:17:20.500Z,3.45
2017-11-12T12:19:47.956Z,5.00
2017-11-12T12:22:15.410Z,6.20
2017-11-12T12:24:42.869Z,5.68
2017-11-12T12:27:10.324Z,4.55
2017-11-12T12:29:37.839Z,3.58
2017-11-12T12:32:05.275Z,3.80
2017-11-12T12:34:32.726Z,1.65
2017-11-12T12:37:00.184Z,1.20
2017-11-12T12:39:27.643Z,0.70
2017-11-12T12:41:55.325Z,1.27
2017-11-12T12:44:22.776Z,0.70
2017-11-12T12:46:50.220Z,0.70
2017-11-12T12:49:18.435Z,0.90
2017-11-12T12:51:45.880Z,0.70
2017-11-12T12:54:14.103Z,0.80
2017-11-12T12:56:41.548Z,1.12
2017-11-12T12:59:09.012Z,0.80
2017-11-12T13:01:36.453Z,1.00
2017-11-12T13:04:03.910Z,0.90
2017-11-12T13:06:31.355Z,1.00
2017-11-12T13:08:58.819Z,1.30
2017-11-12T13:11:26.260Z,1.60
2017-11-12T13:13:53.702Z,1.50
2017-11-12T13:16:21.939Z,1.20
2017-11-12T13:18:50.248Z,1.60
2017-11-12T13:21:18.466Z,2.08
2017-11-12T13:23:45.933Z,2.67
2017-11-12T13:26:14.795Z,2.20
2017-11-12T13:28:42.239Z,1.45
2017-11-12T13:31:10.467Z,12.20
2017-11-12T13:33:38.525Z,4.20
2017-11-12T13:36:05.993Z,3.60
2017-11-12T13:38:33.462Z,1.80
2017-11-12T13:41:00.929Z,3.40
2017-11-12T13:43:28.381Z,1.73
2017-11-12T13:45:55.834Z,1.37
2017-11-12T13:48:23.288Z,1.40
2017-11-12T13:50:50.748Z,1.40
2017-11-12T13:53:18.187Z,1.62
2017-11-12T13:55:45.634Z,1.67
2017-11-12T13:58:13.076Z,2.20
2017-11-12T14:00:40.532Z,1.30
2017-11-12T14:03:07.977Z,1.70
2017-11-12T14:05:35.470Z,1.20
2017-11-12T14:08:02.925Z,1.40
2017-11-12T14:10:30.375Z,1.27
2017-11-12T14:12:57.818Z,2.92
2017-11-12T14:15:25.314Z,1.30
2017-11-12T14:17:52.862Z,2.28
2017-11-12T14:20:20.321Z,2.12
2017-11-12T14:22:47.755Z,2.17
2017-11-12T14:25:15.232Z,2.35
2017-11-12T14:27:42.671Z,1.73
2017-11-12T14:30:10.111Z,1.42
2017-11-12T14:32:37.663Z,1.90
2017-11-12T14:35:05.108Z,3.05
2017-11-12T14:37:33.318Z,2.30
2017-11-12T14:40:00.788Z,2.55
2017-11-12T14:42:28.446Z,2.70
2017-11-12T14:44:55.891Z,6.60
2017-11-12T14:47:23.350Z,4.93
2017-11-12T14:49:50.790Z,4.55
2017-11-12T14:52:18.678Z,4.12
2017-11-12T14:54:46.145Z,5.62
2017-11-12T14:57:14.062Z,4.20
2017-11-12T14:59:41.516Z,5.32
2017-11-12T15:02:09.845Z,5.68
2017-11-12T15:04:38.267Z,6.07
2017-11-12T15:10:00.735Z,7.93
2017-11-12T15:12:28.275Z,9.00
2017-11-12T15:14:56.492Z,8.77
2017-11-12T15:17:23.966Z,8.80
2017-11-12T15:19:51.401Z,10.88
2017-11-12T15:22:18.862Z,11.43
2017-11-12T15:24:46.314Z,11.27
2017-11-12T15:27:14.262Z,15.95
2017-11-12T15:29:41.710Z,15.38
2017-11-12T15:32:10.686Z,14.90
2017-11-12T15:34:39.560Z,14.05
2017-11-12T15:37:07.022Z,17.30
2017-11-12T15:39:34.492Z,16.27
2017-11-12T15:42:05.167Z,16.50
2017-11-12T15:44:32.631Z,17.80
2017-11-12T15:47:01.294Z,19.67
2017-11-12T15:49:30.298Z,16.75
2017-11-12T15:51:57.755Z,19.17
2017-11-12T15:54:25.216Z,16.77
2017-11-12T15:56:52.670Z,16.40
2017-11-12T15:59:20.367Z,18.58
2017-11-12T16:01:47.803Z,19.33
2017-11-12T16:04:15.379Z,15.98
2017-11-12T16:06:42.830Z,18.73
2017-11-12T16:09:11.794Z,25.27
2017-11-12T16:11:40.748Z,20.40
2017-11-12T16:14:11.251Z,19.42
2017-11-12T16:16:38.699Z,17.52
2017-11-12T16:19:06.167Z,19.35
2017-11-12T16:21:33.619Z,11.32
2017-11-12T16:24:01.075Z,14.50
2017-11-12T16:26:28.524Z,15.43
2017-11-12T16:28:56.592Z,19.12
2017-11-12T16:31:25.163Z,14.23
2017-11-12T16:33:52.608Z,12.45
2017-11-12T16:36:20.062Z,11.65
2017-11-12T16:38:47.518Z,11.68
2017-11-12T16:41:14.980Z,12.07
2017-11-12T16:43:42.496Z,13.23
2017-11-12T16:46:10.843Z,13.38
2017-11-12T16:48:38.399Z,11.85
2017-11-12T16:51:05.855Z,8.63
2017-11-12T16:53:33.305Z,11.05
2017-11-12T16:56:00.749Z,9.15
2017-11-12T16:58:28.208Z,10.07
2017-11-12T17:00:55.683Z,9.90
2017-11-12T17:03:23.126Z,9.18
2017-11-12T17:05:50.587Z,10.02
2017-11-12T17:08:18.045Z,10.65
2017-11-12T17:10:45.507Z,8.02
2017-11-12T17:13:12.946Z,6.15
2017-11-12T17:15:40.402Z,7.37
2017-11-12T17:18:07.852Z,6.95
2017-11-12T17:20:35.303Z,7.70
2017-11-12T17:23:02.747Z,4.95
2017-11-12T17:25:30.202Z,5.97
2017-11-12T17:27:57.722Z,7.97
2017-11-12T17:30:25.172Z,7.62
2017-11-12T17:32:52.623Z,6.40
2017-11-12T17:35:20.099Z,7.10
2017-11-12T17:37:47.539Z,5.50
2017-11-12T17:40:14.979Z,6.70
2017-11-12T17:42:42.430Z,5.18
2017-11-12T17:45:09.875Z,5.00
2017-11-12T17:47:37.324Z,5.57
2017-11-12T17:50:04.764Z,6.45
2017-11-12T17:52:32.214Z,8.90
2017-11-12T17:54:59.662Z,8.52
2017-11-12T17:57:27.888Z,11.07
2017-11-12T17:59:55.331Z,8.30
2017-11-12T18:02:22.784Z,7.62
2017-11-12T18:04:50.227Z,6.40
2017-11-12T18:07:17.689Z,9.18
2017-11-12T18:09:45.178Z,8.65
2017-11-12T18:12:12.636Z,9.07
2017-11-12T18:14:40.074Z,7.78
2017-11-12T18:17:07.527Z,5.18
2017-11-12T18:19:34.971Z,4.90
2017-11-12T18:22:02.463Z,7.10
2017-11-12T18:24:29.902Z,7.37
2017-11-12T18:26:57.347Z,7.65
2017-11-12T18:29:24.905Z,5.12
2017-11-12T18:31:52.343Z,6.30
2017-11-12T18:34:19.855Z,5.90
2017-11-12T18:36:47.307Z,4.80
2017-11-12T18:39:14.762Z,5.15
2017-11-12T18:41:42.202Z,6.65
2017-11-12T18:44:09.680Z,5.62
2017-11-12T18:46:37.131Z,5.97
2017-11-12T18:49:04.553Z,5.43
2017-11-12T18:51:32.009Z,5.82
2017-11-12T18:53:59.466Z,6.53
2017-11-12T18:56:28.628Z,6.10
2017-11-12T18:58:58.342Z,8.77
2017-11-12T19:04:36.119Z,9.88
2017-11-12T19:07:06.060Z,25.37
2017-11-12T19:09:34.430Z,7.80
2017-11-12T19:12:19.594Z,17.73
2017-11-12T19:14:47.039Z,10.43
2017-11-12T19:17:18.066Z,8.45
2017-11-12T19:19:48.111Z,7.57
2017-11-12T19:22:31.226Z,5.30
2017-11-12T19:25:00.242Z,5.68
2017-11-12T19:27:27.678Z,6.72
2017-11-12T19:29:55.131Z,8.02
2017-11-12T19:32:22.693Z,9.43
2017-11-12T19:34:50.133Z,8.77
2017-11-12T19:37:17.579Z,8.60
2017-11-12T19:39:45.039Z,8.20
2017-11-12T19:42:12.491Z,8.30
2017-11-12T19:44:39.940Z,6.05
2017-11-12T19:47:07.393Z,7.25
2017-11-12T19:49:34.859Z,6.72
2017-11-12T19:52:02.310Z,6.70
2017-11-12T19:54:29.802Z,8.68
2017-11-12T19:56:57.254Z,9.60
2017-11-12T19:59:24.708Z,7.95
2017-11-12T20:01:52.271Z,10.25
2017-11-12T20:04:19.708Z,6.28
2017-11-12T20:06:47.170Z,12.13
2017-11-12T20:09:14.621Z,8.27
2017-11-12T20:11:42.077Z,8.13
2017-11-12T20:14:09.523Z,5.35
2017-11-12T20:16:37.007Z,6.22
2017-11-12T20:19:04.568Z,7.30
2017-11-12T20:21:32.010Z,6.43
2017-11-12T20:23:59.479Z,6.20
2017-11-12T20:26:26.943Z,6.28
2017-11-12T20:28:54.387Z,7.80
2017-11-12T20:31:21.844Z,8.23
2017-11-12T20:33:49.281Z,5.87
2017-11-12T20:36:16.740Z,5.70
2017-11-12T20:38:44.188Z,4.70
2017-11-12T20:41:11.662Z,4.20
2017-11-12T20:43:39.130Z,4.18
2017-11-12T20:46:06.570Z,6.10
2017-11-12T20:48:34.042Z,3.85
2017-11-12T20:51:02.406Z,7.75
2017-11-12T20:53:29.858Z,4.65
2017-11-12T20:55:57.301Z,4.85
2017-11-12T20:58:24.750Z,4.00
2017-11-12T21:00:52.794Z,5.07
2017-11-12T21:03:21.624Z,6.87
2017-11-12T21:05:49.076Z,5.25
2017-11-12T21:08:16.529Z,5.60
2017-11-12T21:10:43.970Z,4.87
2017-11-12T21:13:11.427Z,4.60
2017-11-12T21:15:38.870Z,4.55
2017-11-12T21:18:07.103Z,5.50
2017-11-12T21:20:34.555Z,5.30
2017-11-12T21:23:18.842Z,5.47
2017-11-12T21:25:47.067Z,7.15
2017-11-12T21:28:15.979Z,6.40
2017-11-12T21:30:43.423Z,4.80
2017-11-12T21:33:26.576Z,4.28
2017-11-12T21:35:54.020Z,6.00
2017-11-12T21:38:21.470Z,4.70
2017-11-12T21:40:48.919Z,6.28
2017-11-12T21:43:16.365Z,4.60
2017-11-12T21:45:43.814Z,5.05
2017-11-12T21:48:11.271Z,5.62
2017-11-12T21:50:38.720Z,4.72
2017-11-12T21:53:06.163Z,4.62
2017-11-12T21:55:33.610Z,5.28
2017-11-12T21:58:01.888Z,6.47
2017-11-12T22:02:36.979Z,5.82
2017-11-12T22:05:04.435Z,6.47
2017-11-12T22:07:31.911Z,6.82
2017-11-12T22:09:59.345Z,5.47
2017-11-12T22:12:26.795Z,6.57
2017-11-12T22:14:54.247Z,5.95
2017-11-12T22:17:21.687Z,6.62
2017-11-12T22:19:49.139Z,6.60
2017-11-12T22:22:16.578Z,5.20
2017-11-12T22:24:44.796Z,7.12
2017-11-12T22:27:12.243Z,6.53
2017-11-12T22:29:39.704Z,6.85
2017-11-12T22:32:07.138Z,7.82
2017-11-12T22:34:34.647Z,7.55
2017-11-12T22:37:02.091Z,6.37
2017-11-12T22:39:29.551Z,7.40
2017-11-12T22:41:56.999Z,7.15
2017-11-12T22:44:24.467Z,5.55
2017-11-12T22:46:51.916Z,7.43
2017-11-12T22:49:19.354Z,6.60
2017-11-12T22:51:46.817Z,7.60
2017-11-12T22:54:14.295Z,6.53
2017-11-12T22:56:41.855Z,6.95
2017-11-12T22:59:09.299Z,7.22
2017-11-12T23:01:36.756Z,6.37
2017-11-12T23:04:04.200Z,6.28
2017-11-12T23:06:31.653Z,7.70
2017-11-12T23:08:59.090Z,7.90
2017-11-12T23:11:26.542Z,8.90
2017-11-12T23:13:53.991Z,6.93
2017-11-12T23:16:22.214Z,5.75
2017-11-12T23:18:49.666Z,7.15
2017-11-12T23:21:17.118Z,6.65
2017-11-12T23:23:44.562Z,7.70
2017-11-12T23:26:12.020Z,7.15
2017-11-12T23:28:39.503Z,6.85
2017-11-12T23:31:06.954Z,7.28
2017-11-12T23:33:34.398Z,7.12
2017-11-12T23:36:01.860Z,8.55
2017-11-12T23:38:29.303Z,7.70
2017-11-12T23:40:56.794Z,8.80
2017-11-12T23:43:24.236Z,8.63
2017-11-12T23:45:51.684Z,7.62
2017-11-12T23:48:19.131Z,8.80
2017-11-12T23:50:46.582Z,9.40
2017-11-12T23:53:14.039Z,9.48
2017-11-12T23:55:41.482Z,7.70
2017-11-12T23:58:08.935Z,8.32
